Terminal Aerodrome Forecast
Issued by NWS

Home | Current Version | Previous Version | Text Only | Print | Product List | Glossary Off
Versions: 1 2 3 4 5 6 7 8 9 10 11 12 13 14 15 16 17 18 19 20 21 22 23 24 25 26 27 28 29 30 31 32 33 34 35 36

000
FTUS43 KLOT 251407 AAA
TAFMDW
TAF AMD
KMDW 251407Z 2514/2612 27014G23KT P6SM SCT008 OVC015
     FM251900 26012G19KT P6SM BKN020 BKN100
     FM252200 26013KT P6SM SCT025 BKN060
     FM260300 29010KT P6SM VCSH BKN060
     FM260900 32010KT P6SM SCT040 SCT100=

USA.gov is the U.S. government's official web portal to all federal, state and local government web resources and services.